Observations
| Time | Sensor | AQI | SAQ | Temp °C | Hum % | Pres Pa | CO μg/m³ | H₂S μg/m³ | NO μg/m³ | NO₂ μg/m³ | O₃ μg/m³ | SO₂ μg/m³ | CO₂e PPM | VOC PPM | PM1 μg/m³ | PM2.5 μg/m³ | PM4 μg/m³ | PM10 μg/m³ | TPS µm |
|---|---|---|---|---|---|---|---|---|---|---|---|---|---|---|---|---|---|---|---|
| Wednesday 12 August 2026 | |||||||||||||||||||
| 14:12 | Trim Market St | 2 | 36.4 | 31 | 66,631 | 0 | 13.11 | 0.02 | 18.57 | 84.6 | 1.06 | 2.14 | 4.88 | 4.95 | |||||
| 14:11 | Trim Patrick St | 2 | 33.7 | 37 | 69,473 | 0 | 10.2 | 0.41 | 13.51 | 105.79 | 17.65 | 3.71 | 9.6 | 10.56 | |||||
| 14:10 | Trim Patrick St | 2 | 33.6 | 37 | 69,479 | 0 | 8.09 | 0.41 | 12.45 | 110.59 | 17.7 | 4.57 | 9.58 | 10.54 | |||||
| 14:09 | Trim Patrick St | 2 | 33.6 | 36 | 69,485 | 0 | 11.37 | 0.43 | 13.07 | 110.29 | 17.76 | 3.71 | 9.64 | 10.6 | |||||
| 14:08 | Trim Patrick St | 2 | 33.5 | 37 | 69,464 | 0 | 9.23 | 0.43 | 12.5 | 113.83 | 17.84 | 6.29 | 11.98 | 13.18 | |||||
| 14:08 | Trim Market St | 2 | 35.9 | 32 | 66,629 | 0 | 17.45 | 0 | 19.58 | 72.39 | 0.56 | 1.43 | 5.4 | 6.67 | |||||
| 14:07 | Trim Market St | 2 | 35.9 | 32 | 66,615 | 0 | 27.16 | 0 | 43.03 | 75.43 | 0.45 | 2.14 | 5.93 | 6.52 | |||||
| 14:06 | Trim Market St | 2 | 35.8 | 32 | 66,596 | 0 | 21.71 | 0 | 31.65 | 68.8 | 0.1 | 2.14 | 4.85 | 5.34 | |||||
| 14:05 | Trim Patrick St | 2 | 33.5 | 37 | 69,473 | 0 | 7.88 | 0.4 | 12.5 | 98.29 | 17.46 | 7.14 | 12.8 | 14.08 | |||||
| 14:05 | Trim Market St | 2 | 35.7 | 32 | 66,610 | 0 | 26.5 | 0 | 27.15 | 107.19 | 1.24 | 1.43 | 4.85 | 4.96 | |||||
| 14:04 | Trim Patrick St | 2 | 33.4 | 37 | 69,479 | 0 | 17.56 | 0.38 | 13.43 | 121.51 | 18.65 | 5.43 | 11.21 | 12.33 | |||||
| 14:04 | Trim Market St | 2 | 35.6 | 32 | 66,619 | 0 | 28.1 | 0 | 26.16 | 96.44 | 1.62 | 1.43 | 4.86 | 5.35 | |||||
| 14:03 | Trim Patrick St | 2 | 33.4 | 37 | 69,458 | 0 | 17.4 | 0.38 | 13.26 | 123.59 | 19.43 | 4.57 | 10.42 | 11.46 | |||||
| 14:03 | Trim Market St | 2 | 35.5 | 32 | 66,637 | 0 | 24.51 | 0 | 22.14 | 102.57 | 1.42 | 1.43 | 4.86 | 5.35 | |||||
| 14:02 | Trim Patrick St | 2 | 33.4 | 36 | 69,462 | 0 | 11.2 | 0.39 | 12.75 | 128.66 | 18.58 | 5.43 | 12.02 | 13.22 | |||||
| 14:02 | Trim Market St | 2 | 35.5 | 31 | 66,633 | 0 | 25.78 | 0.06 | 30.29 | 94.86 | 1.15 | 3.56 | 7.04 | 7.52 | |||||
| 14:01 | Trim Patrick St | 2 | 33.5 | 37 | 69,464 | 0 | 10.6 | 0.43 | 12.08 | 104.61 | 19.72 | 6.29 | 11.99 | 13.18 | |||||
| 14:01 | Trim Market St | 2 | 35.5 | 31 | 66,631 | 0 | 25.4 | 0.09 | 28.72 | 89.93 | 0.99 | 1.43 | 4.34 | 4.77 | |||||
| 14:00 | Trim Patrick St | 2 | 33.5 | 37 | 69,467 | 0 | 11.92 | 0.43 | 12.1 | 137.44 | 19.43 | 4.57 | 10.43 | 11.47 | |||||
| 14:00 | Trim Market St | 2 | 35.6 | 31 | 66,627 | 0 | 27.1 | 0.07 | 22.31 | 93.35 | 1.63 | 2.85 | 5.97 | 6.57 | |||||